createdAt,value
2018-11-25T00:01:45.384Z,19.33
2018-11-25T00:04:15.780Z,20.00
2018-11-25T00:06:46.099Z,21.03
2018-11-25T00:09:16.503Z,20.00
2018-11-25T00:11:46.785Z,19.80
2018-11-25T00:14:17.336Z,18.80
2018-11-25T00:16:47.838Z,20.80
2018-11-25T00:19:18.133Z,19.33
2018-11-25T00:21:48.552Z,19.80
2018-11-25T00:24:19.551Z,20.10
2018-11-25T00:26:49.834Z,18.00
2018-11-25T00:29:20.299Z,19.70
2018-11-25T00:31:50.698Z,18.90
2018-11-25T00:34:21.016Z,19.50
2018-11-25T00:36:51.311Z,18.10
2018-11-25T00:39:21.786Z,18.00
2018-11-25T00:41:52.220Z,18.37
2018-11-25T00:44:22.782Z,17.63
2018-11-25T00:46:53.168Z,21.40
2018-11-25T00:49:23.457Z,17.53
2018-11-25T00:51:53.922Z,17.47
2018-11-25T00:54:24.366Z,17.93
2018-11-25T00:56:54.777Z,21.40
2018-11-25T00:59:25.048Z,18.00
2018-11-25T01:01:55.314Z,17.00
2018-11-25T01:04:25.788Z,19.63
2018-11-25T01:06:56.062Z,17.83
2018-11-25T01:09:26.380Z,18.80
2018-11-25T01:11:56.829Z,18.30
2018-11-25T01:14:27.232Z,17.50
2018-11-25T01:16:57.547Z,18.33
2018-11-25T01:19:28.000Z,15.60
2018-11-25T01:21:58.320Z,17.57
2018-11-25T01:24:28.781Z,18.47
2018-11-25T01:26:59.030Z,16.87
2018-11-25T01:29:29.438Z,15.83
2018-11-25T01:31:59.958Z,19.10
2018-11-25T01:34:30.151Z,18.97
2018-11-25T01:37:00.579Z,20.83
2018-11-25T01:39:31.042Z,19.20
2018-11-25T01:42:01.544Z,18.07
2018-11-25T01:44:32.083Z,19.53
2018-11-25T01:47:02.286Z,17.30
2018-11-25T01:49:32.677Z,16.60
2018-11-25T01:52:03.137Z,15.43
2018-11-25T01:54:33.505Z,15.90
2018-11-25T01:57:03.809Z,15.57
2018-11-25T01:59:34.144Z,14.93
2018-11-25T02:02:04.629Z,14.83
2018-11-25T02:04:34.851Z,16.10
2018-11-25T02:07:05.288Z,16.17
2018-11-25T02:09:35.775Z,16.40
2018-11-25T02:12:06.323Z,16.03
2018-11-25T02:14:36.810Z,14.33
2018-11-25T02:17:07.207Z,14.50
2018-11-25T02:19:37.512Z,13.97
2018-11-25T02:22:07.995Z,15.07
2018-11-25T02:24:38.405Z,15.90
2018-11-25T02:27:08.691Z,13.77
2018-11-25T02:29:39.019Z,14.50
2018-11-25T02:32:09.355Z,13.77
2018-11-25T02:34:39.933Z,13.70
2018-11-25T02:37:10.088Z,14.00
2018-11-25T02:39:40.657Z,14.07
2018-11-25T02:42:11.276Z,14.43
2018-11-25T02:44:41.630Z,14.87
2018-11-25T02:47:12.810Z,13.30
2018-11-25T02:49:43.105Z,14.80
2018-11-25T02:52:13.684Z,14.23
2018-11-25T02:54:44.163Z,14.43
2018-11-25T02:57:14.489Z,14.97
2018-11-25T02:59:44.919Z,13.77
2018-11-25T03:02:15.383Z,13.63
2018-11-25T03:04:45.871Z,13.80
2018-11-25T03:07:16.112Z,14.33
2018-11-25T03:09:46.409Z,12.60
2018-11-25T03:12:16.808Z,12.93
2018-11-25T03:14:47.262Z,13.40
2018-11-25T03:17:17.770Z,12.70
2018-11-25T03:19:48.069Z,13.07
2018-11-25T03:22:18.399Z,12.87
2018-11-25T03:24:48.867Z,14.10
2018-11-25T03:27:19.054Z,12.93
2018-11-25T03:29:49.434Z,13.03
2018-11-25T03:32:19.636Z,13.23
2018-11-25T03:34:50.158Z,12.73
2018-11-25T03:37:20.568Z,12.90
2018-11-25T03:39:50.942Z,14.07
2018-11-25T03:42:21.216Z,11.03
2018-11-25T03:44:51.650Z,14.30
2018-11-25T03:47:22.000Z,13.10
2018-11-25T03:49:52.504Z,12.40
2018-11-25T03:52:22.931Z,12.50
2018-11-25T03:54:53.164Z,13.33
2018-11-25T03:57:23.567Z,12.00
2018-11-25T03:59:53.829Z,12.00
2018-11-25T04:02:24.063Z,14.00
2018-11-25T04:04:54.378Z,12.80
2018-11-25T04:07:24.531Z,13.30
2018-11-25T04:09:54.822Z,12.70
2018-11-25T04:12:25.111Z,13.70
2018-11-25T04:14:55.673Z,13.40
2018-11-25T04:17:26.146Z,13.00
2018-11-25T04:19:56.381Z,13.77
2018-11-25T04:22:26.655Z,14.00
2018-11-25T04:24:57.053Z,16.70
2018-11-25T04:27:27.516Z,19.03
2018-11-25T04:29:57.584Z,17.77
2018-11-25T04:32:28.006Z,18.00
2018-11-25T04:34:58.416Z,17.00
2018-11-25T04:37:28.783Z,17.00
2018-11-25T04:39:59.226Z,14.73
2018-11-25T04:42:29.512Z,14.50
2018-11-25T04:44:59.877Z,14.53
2018-11-25T04:47:30.100Z,18.57
2018-11-25T04:50:00.397Z,17.77
2018-11-25T04:52:30.830Z,17.27
2018-11-25T04:55:01.179Z,16.43
2018-11-25T04:57:31.433Z,18.70
2018-11-25T05:00:01.933Z,18.43
2018-11-25T05:02:33.102Z,19.47
2018-11-25T05:05:03.301Z,18.23
2018-11-25T05:07:33.704Z,16.97
2018-11-25T05:10:04.473Z,20.33
2018-11-25T05:12:34.967Z,20.50
2018-11-25T05:15:05.309Z,19.57
2018-11-25T05:17:35.927Z,20.47
2018-11-25T05:20:08.967Z,20.10
2018-11-25T05:22:39.435Z,20.17
2018-11-25T05:25:13.646Z,19.07
2018-11-25T05:27:44.464Z,20.67
2018-11-25T05:30:24.448Z,20.20
2018-11-25T05:32:55.344Z,20.00
2018-11-25T05:35:25.730Z,18.97
2018-11-25T05:37:56.223Z,20.03
2018-11-25T05:40:26.589Z,20.03
2018-11-25T05:42:56.992Z,19.20
2018-11-25T05:45:27.362Z,18.20
2018-11-25T05:47:57.969Z,18.00
2018-11-25T05:50:28.615Z,17.40
2018-11-25T05:52:59.480Z,15.67
2018-11-25T05:55:30.173Z,16.07
2018-11-25T05:58:00.754Z,15.03
2018-11-25T06:00:33.528Z,14.87
2018-11-25T06:03:04.165Z,14.47
2018-11-25T06:05:34.549Z,14.60
2018-11-25T06:08:05.155Z,16.17
2018-11-25T06:10:35.601Z,17.00
2018-11-25T06:13:06.137Z,14.77
2018-11-25T06:15:36.593Z,16.10
2018-11-25T06:18:07.073Z,16.10
2018-11-25T06:20:37.546Z,15.20
2018-11-25T06:23:07.953Z,15.83
2018-11-25T06:25:38.512Z,17.10
2018-11-25T06:28:08.771Z,17.93
2018-11-25T06:30:39.012Z,22.80
2018-11-25T06:33:09.316Z,20.80
2018-11-25T06:35:39.769Z,18.13
2018-11-25T06:38:10.025Z,18.00
2018-11-25T06:40:40.583Z,18.20
2018-11-25T06:43:10.773Z,17.40
2018-11-25T06:45:41.683Z,16.57
2018-11-25T06:48:11.878Z,16.80
2018-11-25T06:50:42.229Z,15.70
2018-11-25T06:53:12.440Z,18.07
2018-11-25T06:55:42.780Z,17.27
2018-11-25T06:58:13.401Z,17.10
2018-11-25T07:00:43.831Z,19.60
2018-11-25T07:03:14.238Z,16.87
2018-11-25T07:05:44.658Z,15.80
2018-11-25T07:08:15.117Z,16.70
2018-11-25T07:10:45.472Z,18.33
2018-11-25T07:13:15.601Z,17.17
2018-11-25T07:15:46.033Z,18.50
2018-11-25T07:18:16.402Z,15.83
2018-11-25T07:20:46.735Z,15.30
2018-11-25T07:23:17.155Z,16.37
2018-11-25T07:25:47.702Z,15.90
2018-11-25T07:28:18.751Z,16.37
2018-11-25T07:30:48.329Z,15.10
2018-11-25T07:33:18.857Z,18.27
2018-11-25T07:35:49.506Z,15.00
2018-11-25T07:38:20.142Z,17.20
2018-11-25T07:40:50.510Z,15.90
2018-11-25T07:43:21.007Z,14.70
2018-11-25T07:45:51.473Z,14.97
2018-11-25T07:48:21.710Z,15.70
2018-11-25T07:50:52.248Z,14.73
2018-11-25T07:53:22.608Z,15.00
2018-11-25T07:55:52.916Z,14.70
2018-11-25T07:58:23.175Z,15.33
2018-11-25T08:00:53.573Z,14.20
2018-11-25T08:03:24.226Z,13.57
2018-11-25T08:05:54.632Z,15.87
2018-11-25T08:08:25.138Z,14.70
2018-11-25T08:10:55.765Z,15.40
2018-11-25T08:13:26.095Z,16.20
2018-11-25T08:15:56.421Z,14.07
2018-11-25T08:18:26.756Z,14.13
2018-11-25T08:20:57.385Z,14.83
2018-11-25T08:23:27.759Z,15.03
2018-11-25T08:25:58.185Z,14.93
2018-11-25T08:28:28.548Z,16.40
2018-11-25T08:30:58.862Z,14.77
2018-11-25T08:33:29.180Z,16.10
2018-11-25T08:35:59.627Z,15.77
2018-11-25T08:38:30.054Z,16.37
2018-11-25T08:41:00.635Z,15.60
2018-11-25T08:43:30.956Z,16.70
2018-11-25T08:46:01.346Z,16.67
2018-11-25T08:48:31.755Z,14.10
2018-11-25T08:51:02.006Z,14.77
2018-11-25T08:53:32.429Z,15.87
2018-11-25T08:56:03.170Z,15.40
2018-11-25T08:58:33.636Z,15.13
2018-11-25T09:01:04.031Z,16.07
2018-11-25T09:03:35.326Z,18.43
2018-11-25T09:06:05.438Z,15.17
2018-11-25T09:08:35.934Z,15.47
2018-11-25T09:11:06.277Z,14.17
2018-11-25T09:13:36.711Z,17.13
2018-11-25T09:16:07.314Z,17.57
2018-11-25T09:18:37.618Z,22.53
2018-11-25T09:21:08.182Z,17.20
2018-11-25T09:23:38.479Z,16.20
2018-11-25T09:26:08.927Z,16.93
2018-11-25T09:28:39.317Z,18.13
2018-11-25T09:31:09.622Z,17.27
2018-11-25T09:33:40.088Z,16.40
2018-11-25T09:36:10.721Z,17.40
2018-11-25T09:38:41.129Z,17.67
2018-11-25T09:41:11.771Z,15.97
2018-11-25T09:43:42.118Z,17.33
2018-11-25T09:46:12.601Z,14.87
2018-11-25T09:48:42.924Z,16.23
2018-11-25T09:51:13.360Z,17.13
2018-11-25T09:53:43.902Z,16.40
2018-11-25T09:56:14.360Z,15.23
2018-11-25T09:58:44.720Z,15.97
2018-11-25T10:01:21.761Z,17.23
2018-11-25T10:03:53.181Z,17.67
2018-11-25T10:06:23.771Z,17.07
2018-11-25T10:08:54.354Z,18.37
2018-11-25T10:11:24.662Z,17.10
2018-11-25T10:13:55.118Z,17.83
2018-11-25T10:16:25.606Z,17.30
2018-11-25T10:18:56.091Z,17.90
2018-11-25T10:21:26.614Z,18.10
2018-11-25T10:23:56.860Z,18.90
2018-11-25T10:26:30.234Z,17.60
2018-11-25T10:29:00.659Z,18.53
2018-11-25T10:31:30.984Z,17.50
2018-11-25T10:34:01.365Z,18.43
2018-11-25T10:36:31.741Z,18.63
2018-11-25T10:39:02.000Z,19.40
2018-11-25T10:41:32.379Z,20.33
2018-11-25T10:44:02.591Z,20.07
2018-11-25T10:46:32.935Z,20.67
2018-11-25T10:49:03.256Z,20.70
2018-11-25T10:51:33.579Z,21.13
2018-11-25T10:54:04.100Z,20.17
2018-11-25T10:56:34.382Z,19.93
2018-11-25T10:59:23.100Z,19.00
2018-11-25T11:02:19.760Z,19.10
2018-11-25T11:05:15.419Z,20.80
2018-11-25T11:08:09.599Z,19.77
2018-11-25T11:11:02.509Z,21.40
2018-11-25T11:13:56.034Z,22.67
2018-11-25T11:16:53.952Z,22.00
2018-11-25T11:19:49.319Z,21.50
2018-11-25T11:22:46.641Z,22.93
2018-11-25T11:25:42.175Z,22.70
2018-11-25T11:28:28.464Z,23.40
2018-11-25T11:31:13.473Z,22.90
2018-11-25T11:33:41.829Z,24.23
2018-11-25T11:36:12.383Z,23.20
2018-11-25T11:38:42.702Z,24.77
2018-11-25T11:41:13.246Z,24.13
2018-11-25T11:43:43.559Z,22.87
2018-11-25T11:46:14.004Z,24.17
2018-11-25T11:48:44.786Z,24.07
2018-11-25T11:51:15.425Z,24.57
2018-11-25T11:53:45.937Z,26.07
2018-11-25T11:56:16.417Z,23.70
2018-11-25T11:58:47.031Z,25.80
2018-11-25T12:01:17.335Z,24.90
2018-11-25T12:03:47.983Z,24.70
2018-11-25T12:06:18.602Z,23.13
2018-11-25T12:08:49.147Z,23.80
2018-11-25T12:11:19.511Z,24.00
2018-11-25T12:13:49.888Z,23.80
2018-11-25T12:16:20.515Z,26.60
2018-11-25T12:18:50.982Z,24.50
2018-11-25T12:21:21.407Z,25.90
2018-11-25T12:23:51.820Z,23.93
2018-11-25T12:26:22.352Z,23.60
2018-11-25T12:28:52.821Z,25.27
2018-11-25T12:31:22.989Z,24.00
2018-11-25T12:33:53.503Z,26.00
2018-11-25T12:36:23.968Z,25.07
2018-11-25T12:38:54.640Z,23.67
2018-11-25T12:41:25.166Z,20.70
2018-11-25T12:43:55.810Z,22.30
2018-11-25T12:46:26.397Z,23.37
2018-11-25T12:48:56.661Z,23.33
2018-11-25T12:51:27.191Z,21.90
2018-11-25T12:53:57.642Z,20.27
2018-11-25T12:56:28.266Z,23.40
2018-11-25T12:58:58.853Z,23.73
2018-11-25T13:01:29.123Z,21.30
2018-11-25T13:04:00.142Z,20.67
2018-11-25T13:06:30.744Z,22.47
2018-11-25T13:09:01.195Z,24.97
2018-11-25T13:11:31.733Z,22.00
2018-11-25T13:14:02.082Z,23.07
2018-11-25T13:16:32.559Z,24.13
2018-11-25T13:19:03.696Z,23.60
2018-11-25T13:21:34.191Z,23.93
2018-11-25T13:24:04.676Z,20.70
2018-11-25T13:26:35.186Z,20.13
2018-11-25T13:29:05.950Z,18.70
2018-11-25T13:31:36.350Z,19.80
2018-11-25T13:34:07.794Z,20.83
2018-11-25T13:36:38.356Z,20.80
2018-11-25T13:39:10.826Z,22.37
2018-11-25T13:41:41.190Z,20.60
2018-11-25T13:44:11.794Z,21.20
2018-11-25T13:46:42.284Z,18.77
2018-11-25T13:49:12.708Z,18.70
2018-11-25T13:51:43.237Z,22.67
2018-11-25T13:54:14.081Z,18.17
2018-11-25T13:56:44.710Z,20.63
2018-11-25T13:59:14.930Z,19.27
2018-11-25T14:01:45.455Z,15.67
2018-11-25T14:04:15.820Z,15.27
2018-11-25T14:06:46.240Z,16.43
2018-11-25T14:09:17.515Z,17.60
2018-11-25T14:11:48.021Z,16.43
2018-11-25T14:14:18.537Z,16.40
2018-11-25T14:16:49.056Z,16.47
2018-11-25T14:19:19.512Z,15.60
2018-11-25T14:21:49.896Z,16.67
2018-11-25T14:24:20.462Z,16.17
2018-11-25T14:26:58.999Z,15.33
2018-11-25T14:29:30.158Z,15.33
2018-11-25T14:32:00.605Z,14.07
2018-11-25T14:34:31.080Z,15.87
2018-11-25T14:37:01.578Z,14.93
2018-11-25T14:39:32.000Z,14.67
2018-11-25T14:42:02.429Z,15.97
2018-11-25T14:44:32.713Z,17.07
2018-11-25T14:47:03.132Z,15.93
2018-11-25T14:49:33.788Z,16.83
2018-11-25T14:52:04.398Z,16.87
2018-11-25T14:54:34.771Z,16.20
2018-11-25T14:57:05.493Z,17.73
2018-11-25T14:59:35.805Z,18.73
2018-11-25T15:02:06.104Z,16.73
2018-11-25T15:04:36.596Z,19.20
2018-11-25T15:07:07.156Z,17.00
2018-11-25T15:09:38.328Z,17.97
2018-11-25T15:12:08.714Z,16.57
2018-11-25T15:14:39.780Z,17.80
2018-11-25T15:17:10.176Z,17.03
2018-11-25T15:19:41.499Z,18.43
2018-11-25T15:22:11.825Z,17.50
2018-11-25T15:24:42.273Z,18.93
2018-11-25T15:27:12.802Z,16.07
2018-11-25T15:29:43.155Z,18.17
2018-11-25T15:32:13.638Z,16.30
2018-11-25T15:34:44.346Z,17.80
2018-11-25T15:37:15.435Z,20.00
2018-11-25T15:39:46.544Z,17.20
2018-11-25T15:42:16.967Z,17.27
2018-11-25T15:44:47.570Z,16.20
2018-11-25T15:47:17.810Z,16.93
2018-11-25T15:49:48.398Z,18.47
2018-11-25T15:52:18.984Z,18.80
2018-11-25T15:54:49.419Z,19.30
2018-11-25T15:57:19.795Z,18.67
2018-11-25T15:59:50.155Z,18.50
2018-11-25T16:02:20.732Z,19.20
2018-11-25T16:04:50.960Z,17.93
2018-11-25T16:07:21.359Z,20.33
2018-11-25T16:09:51.596Z,18.73
2018-11-25T16:12:22.046Z,20.57
2018-11-25T16:14:52.639Z,19.20
2018-11-25T16:17:22.918Z,20.00
2018-11-25T16:19:53.352Z,18.97
2018-11-25T16:22:23.738Z,18.20
2018-11-25T16:24:54.947Z,17.87
2018-11-25T16:27:25.499Z,18.70
2018-11-25T16:29:55.845Z,19.10
2018-11-25T16:32:26.188Z,18.53
2018-11-25T16:34:56.508Z,18.40
2018-11-25T16:37:26.932Z,18.70
2018-11-25T16:39:57.391Z,18.00
2018-11-25T16:42:27.745Z,20.60
2018-11-25T16:44:58.140Z,17.57
2018-11-25T16:47:28.699Z,18.70
2018-11-25T16:49:59.084Z,17.23
2018-11-25T16:52:29.445Z,16.53
2018-11-25T16:54:59.751Z,18.27
2018-11-25T16:57:30.420Z,17.40
2018-11-25T17:00:00.807Z,18.60
2018-11-25T17:02:31.060Z,18.90
2018-11-25T17:05:01.477Z,18.13
2018-11-25T17:07:31.914Z,18.17
2018-11-25T17:10:02.171Z,18.57
2018-11-25T17:12:32.768Z,18.00
2018-11-25T17:15:03.130Z,18.13
2018-11-25T17:17:33.425Z,18.00
2018-11-25T17:20:03.909Z,17.90
2018-11-25T17:22:34.463Z,18.30
2018-11-25T17:25:05.289Z,17.87
2018-11-25T17:27:35.481Z,18.47
2018-11-25T17:30:09.519Z,17.70
2018-11-25T17:32:39.967Z,18.63
2018-11-25T17:35:23.460Z,15.77
2018-11-25T17:37:53.823Z,17.67
2018-11-25T17:40:24.154Z,15.87
2018-11-25T17:42:54.725Z,18.37
2018-11-25T17:45:27.876Z,17.27
2018-11-25T17:47:58.300Z,16.43
2018-11-25T17:50:32.102Z,17.50
2018-11-25T17:53:02.793Z,18.23
2018-11-25T17:55:33.797Z,17.53
2018-11-25T17:58:05.723Z,21.40
2018-11-25T18:00:50.557Z,19.23
2018-11-25T18:03:24.017Z,18.20
2018-11-25T18:05:54.609Z,18.77
2018-11-25T18:08:25.080Z,20.00
2018-11-25T18:10:55.972Z,19.50
2018-11-25T18:13:31.567Z,17.87
2018-11-25T18:16:05.446Z,18.10
2018-11-25T18:18:41.030Z,18.80
2018-11-25T18:21:15.226Z,19.00
2018-11-25T18:23:46.881Z,18.60
2018-11-25T18:26:17.666Z,17.27
2018-11-25T18:28:51.109Z,17.67
2018-11-25T18:31:22.091Z,18.17
2018-11-25T18:33:52.794Z,17.50
2018-11-25T18:36:27.339Z,17.73
2018-11-25T18:38:57.961Z,19.50
2018-11-25T18:41:28.432Z,19.27
2018-11-25T18:44:00.068Z,17.63
2018-11-25T18:46:30.474Z,17.30
2018-11-25T18:49:01.109Z,15.43
2018-11-25T18:51:31.423Z,9.73
2018-11-25T18:54:01.750Z,8.93
2018-11-25T18:56:32.091Z,8.40
2018-11-25T18:59:02.560Z,7.43
2018-11-25T19:01:58.696Z,7.00
2018-11-25T19:04:30.107Z,6.80
2018-11-25T19:07:01.192Z,5.70
2018-11-25T19:09:31.704Z,6.10
2018-11-25T19:12:02.506Z,5.70
2018-11-25T19:14:32.827Z,6.27
2018-11-25T19:17:03.922Z,6.40
2018-11-25T19:19:34.785Z,6.70
2018-11-25T19:22:06.168Z,5.33
2018-11-25T19:24:36.389Z,5.40
2018-11-25T19:27:08.323Z,6.73
2018-11-25T19:29:38.655Z,6.13
2018-11-25T19:32:09.310Z,6.30
2018-11-25T19:34:39.911Z,5.57
2018-11-25T19:37:10.380Z,5.70
2018-11-25T19:39:40.899Z,5.23
2018-11-25T19:42:11.352Z,4.60
2018-11-25T19:44:42.149Z,4.10
2018-11-25T19:47:12.642Z,4.07
2018-11-25T19:49:43.289Z,4.10
2018-11-25T19:52:13.920Z,3.73
2018-11-25T19:54:44.332Z,4.27
2018-11-25T19:57:14.584Z,6.87
2018-11-25T19:59:45.149Z,6.57
2018-11-25T20:02:15.605Z,4.53
2018-11-25T20:04:45.903Z,3.93
2018-11-25T20:07:16.342Z,4.63
2018-11-25T20:09:46.679Z,3.50
2018-11-25T20:12:17.213Z,4.13
2018-11-25T20:14:47.689Z,3.80
2018-11-25T20:17:22.930Z,3.90
2018-11-25T20:19:53.559Z,4.13
2018-11-25T20:22:24.836Z,4.70
2018-11-25T20:24:55.202Z,3.77
2018-11-25T20:27:38.336Z,3.87
2018-11-25T20:30:11.914Z,4.27
2018-11-25T20:32:47.580Z,3.40
2018-11-25T20:35:18.201Z,4.13
2018-11-25T20:37:53.540Z,3.73
2018-11-25T20:40:23.977Z,3.57
2018-11-25T20:42:54.392Z,5.23
2018-11-25T20:45:31.285Z,11.70
2018-11-25T20:48:01.403Z,7.77
2018-11-25T20:50:31.739Z,3.90
2018-11-25T20:53:06.995Z,7.37
2018-11-25T20:55:37.873Z,4.10
2018-11-25T20:58:09.661Z,4.40
2018-11-25T21:00:41.265Z,5.90
2018-11-25T21:03:12.951Z,4.53
2018-11-25T21:05:43.274Z,4.23
2018-11-25T21:08:13.560Z,4.43
2018-11-25T21:10:44.052Z,4.87
2018-11-25T21:13:14.347Z,3.80
2018-11-25T21:15:44.654Z,4.20
2018-11-25T21:18:15.064Z,4.77
2018-11-25T21:20:51.021Z,11.83
2018-11-25T21:23:15.887Z,10.23
2018-11-25T21:25:46.213Z,8.20
2018-11-25T21:28:16.740Z,5.80
2018-11-25T21:30:47.272Z,4.73
2018-11-25T21:33:17.566Z,4.50
2018-11-25T21:35:47.970Z,4.37
2018-11-25T21:38:18.446Z,4.70
2018-11-25T21:40:48.806Z,6.77
2018-11-25T21:43:19.162Z,12.60
2018-11-25T21:45:49.626Z,7.30
2018-11-25T21:48:20.036Z,6.00
2018-11-25T21:50:50.293Z,5.80
2018-11-25T21:53:20.856Z,10.50
2018-11-25T21:58:21.733Z,6.57
2018-11-25T22:00:52.144Z,9.60
2018-11-25T22:03:22.481Z,4.70
2018-11-25T22:05:52.810Z,3.93
2018-11-25T22:08:23.301Z,5.03
2018-11-25T22:10:53.820Z,4.20
2018-11-25T22:13:24.117Z,4.37
2018-11-25T22:15:54.482Z,4.73
2018-11-25T22:18:24.947Z,4.73
2018-11-25T22:20:55.596Z,4.07
2018-11-25T22:23:26.001Z,4.40
2018-11-25T22:25:56.455Z,3.27
2018-11-25T22:28:27.031Z,2.97
2018-11-25T22:30:57.615Z,3.37
2018-11-25T22:33:27.765Z,3.13
2018-11-25T22:35:58.244Z,3.23
2018-11-25T22:38:28.676Z,2.80
2018-11-25T22:40:59.233Z,3.20
2018-11-25T22:43:29.753Z,3.23
2018-11-25T22:45:59.947Z,3.23
2018-11-25T22:48:30.397Z,3.00
2018-11-25T22:51:00.953Z,3.50
2018-11-25T22:53:31.208Z,3.00
2018-11-25T22:56:01.602Z,4.40
2018-11-25T22:58:31.798Z,3.10
2018-11-25T23:01:02.263Z,3.60
2018-11-25T23:03:32.458Z,2.70
2018-11-25T23:06:19.236Z,2.47
2018-11-25T23:08:49.529Z,2.77
2018-11-25T23:11:19.992Z,2.40
2018-11-25T23:13:50.330Z,2.70
2018-11-25T23:16:20.873Z,2.67
2018-11-25T23:18:51.433Z,2.30
2018-11-25T23:21:21.704Z,2.63
2018-11-25T23:23:51.978Z,2.83
2018-11-25T23:26:22.431Z,2.40
2018-11-25T23:28:52.648Z,2.57
2018-11-25T23:31:23.143Z,2.57
2018-11-25T23:33:53.688Z,2.40
2018-11-25T23:36:24.150Z,2.27
2018-11-25T23:38:54.359Z,2.87
2018-11-25T23:41:24.697Z,2.90
2018-11-25T23:43:55.806Z,2.10
2018-11-25T23:46:26.059Z,2.50
2018-11-25T23:48:56.598Z,2.57
2018-11-25T23:51:26.786Z,3.03
2018-11-25T23:53:57.404Z,3.10
2018-11-25T23:56:27.730Z,3.20
2018-11-25T23:58:58.095Z,2.93
